Time;durP1;ratioP1;P1;durP2;ratioP2;P2;SDS_P1;SDS_P2;PMS_P1;PMS_P2;Temp;Humidity;BMP_temperature;BMP_pressure;BME280_temperature;BME280_humidity;BME280_pressure;Samples;Min_cycle;Max_cycle;Signal;HPM_P1;HPM_P2
2023/01/01 00:00:29;;;;;;;3.13;1.70;;;;;;;15.32;74.76;100486.47;6268120;28;20048;-73
2023/01/01 00:03:30;;;;;;;3.10;1.98;;;;;;;15.23;74.97;100482.72;6261521;28;20048;-75
2023/01/01 00:06:32;;;;;;;10.98;1.85;;;;;;;15.33;74.75;100477.56;6271318;28;20094;-74
2023/01/01 00:12:54;;;;;;;5.97;2.38;;;;;;;15.22;76.39;100496.94;6271014;28;20053;-74
2023/01/01 00:15:55;;;;;;;9.73;2.10;;;;;;;15.37;73.52;100490.44;6266341;28;20056;-73
2023/01/01 00:18:56;;;;;;;5.10;2.50;;;;;;;15.39;73.81;100492.97;6270718;28;20045;-73
2023/01/01 00:21:58;;;;;;;5.28;2.20;;;;;;;15.32;75.06;100495.25;6271012;28;20068;-74
2023/01/01 00:25:00;;;;;;;8.65;2.75;;;;;;;15.28;74.04;100506.22;6270795;28;20085;-74
2023/01/01 00:28:02;;;;;;;4.78;2.15;;;;;;;15.25;75.16;100485.25;6271271;28;20049;-73
2023/01/01 00:31:06;;;;;;;10.15;2.33;;;;;;;15.41;73.33;100491.06;6270700;28;20110;-74
2023/01/01 00:34:09;;;;;;;6.00;2.38;;;;;;;15.42;73.62;100492.75;6270700;28;20560;-73
2023/01/01 00:37:11;;;;;;;7.20;2.22;;;;;;;15.35;73.80;100505.63;6271001;28;20053;-73
2023/01/01 00:40:14;;;;;;;4.68;2.38;;;;;;;15.23;75.01;100488.88;6270843;28;20061;-73
2023/01/01 00:43:15;;;;;;;6.38;2.65;;;;;;;15.26;73.91;100489.56;6274973;28;20052;-73
2023/01/01 00:46:16;;;;;;;5.90;2.42;;;;;;;15.23;73.98;100480.94;6275256;28;20052;-73
2023/01/01 00:49:18;;;;;;;5.07;2.63;;;;;;;15.23;74.29;100495.97;6275547;28;20060;-74
2023/01/01 00:52:19;;;;;;;7.72;3.03;;;;;;;15.34;73.00;100503.91;6275028;28;20041;-74
2023/01/01 00:55:21;;;;;;;5.60;1.95;;;;;;;15.30;73.00;100499.81;6275273;28;20493;-73
2023/01/01 00:58:24;;;;;;;6.60;1.92;;;;;;;15.40;72.85;100492.88;6275536;28;20052;-74
2023/01/01 01:01:26;;;;;;;7.20;2.08;;;;;;;15.40;72.67;100495.50;6275083;28;20072;-74
2023/01/01 01:04:27;;;;;;;3.75;1.70;;;;;;;15.37;73.45;100518.75;6274966;28;20497;-74
2023/01/01 01:07:33;;;;;;;6.47;1.90;;;;;;;15.34;73.88;100532.19;6275178;28;20060;-75
2023/01/01 01:10:36;;;;;;;6.50;2.20;;;;;;;15.37;72.50;100516.09;6274881;28;20515;-74
2023/01/01 01:13:38;;;;;;;6.45;1.52;;;;;;;15.43;73.15;100520.91;6274957;28;20045;-73
2023/01/01 01:16:40;;;;;;;8.60;2.45;;;;;;;15.48;72.31;100524.03;6274777;28;20057;-74
2023/01/01 01:19:42;;;;;;;9.57;3.35;;;;;;;15.36;74.27;100517.91;6274585;28;20060;-73
2023/01/01 01:22:43;;;;;;;3.00;1.80;;;;;;;15.42;72.26;100516.56;6274348;28;20459;-72
2023/01/01 01:25:46;;;;;;;6.32;2.10;;;;;;;15.30;73.63;100513.06;6274571;28;20501;-73
2023/01/01 01:28:48;;;;;;;7.93;2.40;;;;;;;15.40;72.74;100515.88;6274638;28;20041;-74
2023/01/01 01:31:49;;;;;;;3.95;1.77;;;;;;;15.37;73.92;100514.28;6274279;28;20623;-74
2023/01/01 01:34:50;;;;;;;14.55;3.53;;;;;;;15.31;73.68;100516.56;6274434;28;20056;-74
2023/01/01 01:37:52;;;;;;;7.90;2.00;;;;;;;15.33;74.51;100509.34;6274429;28;20049;-74
2023/01/01 01:40:54;;;;;;;8.80;2.22;;;;;;;15.41;74.25;100515.72;6274371;28;20060;-74
2023/01/01 01:43:58;;;;;;;7.78;2.53;;;;;;;15.32;74.62;100515.59;6273933;28;20056;-73
2023/01/01 01:47:01;;;;;;;7.13;2.85;;;;;;;15.38;73.56;100515.97;6274394;28;20048;-73
2023/01/01 01:50:09;;;;;;;5.85;2.55;;;;;;;15.35;75.47;100502.97;6274039;28;20045;-73
2023/01/01 01:53:14;;;;;;;5.45;2.63;;;;;;;15.39;75.87;100498.25;6273709;28;20132;-73
2023/01/01 01:56:21;;;;;;;8.65;2.47;;;;;;;15.34;76.35;100519.81;6274038;28;20056;-74
2023/01/01 01:59:25;;;;;;;6.20;2.28;;;;;;;15.39;75.88;100509.69;6274031;28;20052;-73
2023/01/01 02:02:31;;;;;;;10.45;2.47;;;;;;;15.44;76.38;100515.50;6273567;28;20052;-73
2023/01/01 02:05:34;;;;;;;8.20;2.53;;;;;;;15.34;76.96;100521.59;6273464;28;20053;-73
2023/01/01 02:08:36;;;;;;;7.35;2.92;;;;;;;15.33;77.41;100534.00;6273803;28;20049;-74
2023/01/01 02:11:39;;;;;;;5.38;2.97;;;;;;;15.32;76.88;100540.28;6273147;28;20048;-73
2023/01/01 02:14:40;;;;;;;7.10;2.92;;;;;;;15.41;76.98;100544.03;6273542;28;20434;-73
2023/01/01 02:17:52;;;;;;;9.68;3.20;;;;;;;15.30;77.57;100552.78;6273285;28;20409;-73
2023/01/01 02:20:59;;;;;;;18.23;3.53;;;;;;;15.33;76.66;100549.06;6273443;28;20060;-73
2023/01/01 02:24:26;;;;;;;6.40;2.83;;;;;;;15.24;78.31;100553.25;6273220;28;20049;-73
2023/01/01 02:27:39;;;;;;;9.98;3.15;;;;;;;15.11;78.00;100555.97;6273115;28;20053;-74
2023/01/01 02:30:45;;;;;;;14.13;4.00;;;;;;;15.26;76.14;100556.63;6273244;28;20053;-74
2023/01/01 02:33:48;;;;;;;15.15;5.15;;;;;;;15.29;75.77;100569.63;6272793;28;20049;-73
2023/01/01 02:36:53;;;;;;;17.27;4.07;;;;;;;15.36;75.26;100575.31;6272967;28;20056;-73
2023/01/01 02:39:57;;;;;;;10.05;4.05;;;;;;;15.31;76.48;100561.59;6272948;28;20048;-73
2023/01/01 02:42:58;;;;;;;10.75;3.88;;;;;;;15.29;75.75;100569.63;6272737;28;20048;-73
2023/01/01 02:46:05;;;;;;;8.13;3.63;;;;;;;15.32;74.93;100560.63;6272677;28;20053;-73
2023/01/01 02:49:07;;;;;;;7.53;3.63;;;;;;;15.27;75.60;100554.81;6272565;28;20060;-73
2023/01/01 02:52:15;;;;;;;15.32;5.18;;;;;;;15.23;76.12;100557.69;6272531;28;20045;-73
2023/01/01 02:55:29;;;;;;;16.75;3.72;;;;;;;15.16;75.94;100556.47;6272349;28;20048;-73
2023/01/01 03:02:09;;;;;;;8.57;3.25;;;;;;;15.13;74.74;100538.19;6272286;28;20045;-73
2023/01/01 03:05:18;;;;;;;8.32;4.05;;;;;;;15.27;73.86;100531.84;6271371;28;20052;-73
2023/01/01 03:08:25;;;;;;;7.88;3.00;;;;;;;15.28;72.97;100530.88;6272512;28;20448;-73
2023/01/01 03:11:33;;;;;;;9.25;3.83;;;;;;;15.27;72.29;100523.06;6271946;28;20053;-73
2023/01/01 03:14:46;;;;;;;6.40;3.25;;;;;;;15.36;71.23;100541.72;6272320;28;20053;-73
2023/01/01 03:17:55;;;;;;;14.57;3.60;;;;;;;15.29;71.56;100539.66;6271940;28;20049;-73
2023/01/01 03:21:01;;;;;;;9.15;3.33;;;;;;;15.29;72.57;100539.66;6271972;28;20072;-73
2023/01/01 03:24:03;;;;;;;14.02;3.00;;;;;;;15.15;71.75;100551.28;6271955;28;20496;-73
2023/01/01 03:27:08;;;;;;;10.55;3.35;;;;;;;15.09;73.66;100547.31;6272021;28;20060;-73
2023/01/01 03:30:13;;;;;;;7.85;3.58;;;;;;;15.09;72.41;100555.25;6271659;28;20045;-73
2023/01/01 03:33:21;;;;;;;16.27;3.60;;;;;;;15.11;71.60;100576.31;6271973;28;20041;-73
2023/01/01 03:36:27;;;;;;;9.07;4.40;;;;;;;15.08;72.66;100566.81;6271637;28;20056;-73
2023/01/01 03:39:33;;;;;;;14.68;4.18;;;;;;;15.10;71.42;100570.16;6271530;28;20119;-73
2023/01/01 03:42:39;;;;;;;10.25;3.03;;;;;;;15.11;71.26;100568.38;6271490;28;20049;-73
2023/01/01 03:45:43;;;;;;;8.48;3.90;;;;;;;14.94;72.53;100570.50;6271699;28;20055;-73
2023/01/01 03:48:59;;;;;;;6.80;3.15;;;;;;;14.88;72.47;100560.34;6271509;28;20059;-73
2023/01/01 03:52:14;;;;;;;11.77;4.20;;;;;;;14.90;72.92;100584.91;6271580;28;20045;-73
2023/01/01 03:55:19;;;;;;;11.13;2.88;;;;;;;14.87;71.64;100582.47;6271294;28;20049;-74
2023/01/01 03:58:27;;;;;;;13.43;3.60;;;;;;;14.87;72.34;100576.34;6270819;28;20045;-74
2023/01/01 04:01:33;;;;;;;7.35;3.20;;;;;;;14.90;71.73;100584.91;6271273;28;20053;-73
2023/01/01 04:04:37;;;;;;;9.07;3.70;;;;;;;14.92;71.02;100590.91;6271081;28;20587;-73
2023/01/01 04:07:39;;;;;;;10.77;3.40;;;;;;;14.88;70.74;100589.44;6271377;28;20049;-73
2023/01/01 04:10:44;;;;;;;8.85;3.30;;;;;;;14.86;71.72;100570.19;6271033;28;20516;-73
2023/01/01 04:13:46;;;;;;;8.38;3.03;;;;;;;14.92;71.27;100569.75;6271068;28;20045;-73
2023/01/01 04:16:48;;;;;;;7.88;3.25;;;;;;;14.83;70.00;100586.28;6274871;28;20052;-73
2023/01/01 04:19:50;;;;;;;8.02;2.83;;;;;;;14.91;69.91;100580.44;6276201;28;20049;-73
2023/01/01 04:22:52;;;;;;;6.38;2.85;;;;;;;14.83;69.94;100596.03;6276262;28;20485;-73
2023/01/01 04:25:53;;;;;;;7.22;2.35;;;;;;;14.69;70.42;100600.53;6276127;28;20049;-73
2023/01/01 04:28:54;;;;;;;5.57;2.58;;;;;;;14.78;68.80;100577.03;6276000;28;20053;-73
2023/01/01 04:31:56;;;;;;;4.57;2.15;;;;;;;14.86;68.31;100606.41;6275766;28;20053;-73
2023/01/01 04:34:58;;;;;;;6.07;2.35;;;;;;;14.84;69.28;100597.72;6275712;28;20056;-73
2023/01/01 04:38:02;;;;;;;7.75;2.60;;;;;;;14.73;68.91;100602.97;6275728;28;20187;-73
2023/01/01 04:41:04;;;;;;;5.88;1.80;;;;;;;14.69;69.08;100620.84;6275581;28;20049;-73
2023/01/01 04:44:06;;;;;;;5.78;2.28;;;;;;;14.68;68.32;100606.78;6275559;28;20122;-73
2023/01/01 04:47:07;;;;;;;8.60;1.77;;;;;;;14.69;68.90;100612.91;6275680;28;20622;-73
2023/01/01 04:50:10;;;;;;;8.70;1.73;;;;;;;14.63;68.96;100611.56;6275506;28;20420;-73
2023/01/01 04:53:11;;;;;;;2.35;1.35;;;;;;;14.69;68.64;100613.75;6275400;28;20048;-73
2023/01/01 04:56:14;;;;;;;3.35;1.65;;;;;;;14.65;68.68;100622.88;6275131;28;20044;-73
2023/01/01 04:59:15;;;;;;;5.18;2.45;;;;;;;14.60;69.50;100626.81;6275420;28;20045;-73
2023/01/01 05:02:17;;;;;;;9.50;1.88;;;;;;;14.49;70.17;100630.25;6274769;28;20413;-73
2023/01/01 05:05:21;;;;;;;4.63;1.75;;;;;;;14.49;70.69;100613.50;6275222;28;20052;-73
2023/01/01 05:08:22;;;;;;;3.20;1.60;;;;;;;14.50;70.06;100609.91;6275351;28;20053;-73
2023/01/01 05:11:25;;;;;;;1.60;1.27;;;;;;;14.57;70.17;100609.34;6275072;28;20052;-73
2023/01/01 05:14:26;;;;;;;2.72;1.35;;;;;;;14.48;69.34;100628.53;6274835;28;20048;-73
2023/01/01 05:17:27;;;;;;;4.28;2.08;;;;;;;14.46;71.34;100611.91;6275005;28;20045;-73
2023/01/01 05:20:30;;;;;;;3.20;1.65;;;;;;;14.47;69.17;100642.66;6275040;28;20500;-73
2023/01/01 05:23:32;;;;;;;2.88;1.20;;;;;;;14.55;68.45;100628.94;6274720;28;20412;-73
2023/01/01 05:26:35;;;;;;;2.28;1.10;;;;;;;14.51;68.82;100635.41;6273798;28;20426;-74
2023/01/01 05:29:37;;;;;;;3.67;1.60;;;;;;;14.60;68.33;100656.75;6274429;28;20055;-73
2023/01/01 05:32:38;;;;;;;9.38;1.27;;;;;;;14.54;68.93;100662.47;6274377;28;20615;-73
2023/01/01 05:35:41;;;;;;;4.82;1.48;;;;;;;14.61;68.40;100657.59;6274360;28;20048;-74
2023/01/01 05:38:42;;;;;;;2.65;0.85;;;;;;;14.59;68.61;100668.28;6274617;28;20053;-74
2023/01/01 05:41:43;;;;;;;4.93;1.42;;;;;;;14.42;69.88;100672.09;6274017;28;20053;-74
2023/01/01 05:44:45;;;;;;;3.05;1.60;;;;;;;14.41;70.15;100674.84;6274563;28;20052;-74
2023/01/01 05:47:46;;;;;;;5.18;1.25;;;;;;;14.35;70.42;100668.19;6274309;28;20059;-74
2023/01/01 05:50:49;;;;;;;5.82;2.03;;;;;;;14.38;70.15;100669.75;6273893;28;20052;-73
2023/01/01 05:53:51;;;;;;;6.43;1.48;;;;;;;14.44;69.55;100664.03;6273798;28;20422;-73
2023/01/01 05:56:52;;;;;;;1.70;0.85;;;;;;;14.37;71.37;100658.34;6273935;28;20389;-73
2023/01/01 05:59:53;;;;;;;6.50;0.90;;;;;;;14.34;70.35;100678.88;6273806;28;20053;-73
2023/01/01 06:02:55;;;;;;;5.45;0.95;;;;;;;14.31;70.91;100698.44;6273732;28;20053;-74
2023/01/01 06:05:57;;;;;;;1.13;0.93;;;;;;;14.23;72.69;100705.22;6273478;28;20408;-74
2023/01/01 06:09:01;;;;;;;2.70;0.80;;;;;;;14.21;71.24;100708.78;6273586;28;20063;-73
2023/01/01 06:12:03;;;;;;;2.72;0.93;;;;;;;14.28;70.96;100709.22;6273569;28;20045;-73
2023/01/01 06:15:06;;;;;;;2.75;1.25;;;;;;;14.28;71.13;100713.66;6270562;28;20419;-73
2023/01/01 06:18:07;;;;;;;2.03;0.80;;;;;;;14.29;71.57;100712.72;6269474;28;20049;-73
2023/01/01 06:21:11;;;;;;;4.70;0.75;;;;;;;14.18;72.08;100721.38;6272841;28;20049;-74
2023/01/01 06:24:13;;;;;;;5.50;0.93;;;;;;;14.18;72.10;100716.09;6273203;28;20049;-74
2023/01/01 06:27:14;;;;;;;4.70;1.48;;;;;;;14.21;72.19;100705.28;6273229;28;20128;-73
2023/01/01 06:30:15;;;;;;;7.70;0.98;;;;;;;14.25;71.97;100706.78;6273257;28;20053;-74
2023/01/01 06:33:17;;;;;;;1.55;0.80;;;;;;;14.21;73.62;100705.28;6273027;28;20053;-74
2023/01/01 06:36:21;;;;;;;2.20;1.10;;;;;;;14.17;73.23;100690.59;6272744;28;20045;-74
2023/01/01 06:39:22;;;;;;;2.05;0.88;;;;;;;14.13;73.52;100702.38;6272772;28;20409;-73
2023/01/01 06:42:24;;;;;;;5.82;1.08;;;;;;;14.15;73.68;100717.16;6272492;28;20056;-73
2023/01/01 06:45:25;;;;;;;1.77;0.85;;;;;;;14.19;73.58;100734.50;6263555;28;20049;-73
2023/01/01 06:48:28;;;;;;;3.33;0.95;;;;;;;14.23;74.22;100735.13;6272647;28;20485;-74
2023/01/01 06:51:32;;;;;;;2.88;0.90;;;;;;;14.20;74.08;100740.63;6269666;28;20060;-73
2023/01/01 06:54:33;;;;;;;8.10;0.70;;;;;;;14.26;73.36;100737.56;6257250;28;20070;-73
2023/01/01 06:57:35;;;;;;;2.97;1.02;;;;;;;14.27;74.10;100757.75;6258677;28;20046;-74
2023/01/01 07:00:36;;;;;;;2.33;0.77;;;;;;;14.28;74.22;100733.00;6258136;28;20040;-74
2023/01/01 07:03:38;;;;;;;1.70;0.70;;;;;;;14.30;75.05;100741.66;6258613;28;20437;-73
2023/01/01 07:06:42;;;;;;;2.33;1.67;;;;;;;14.25;74.75;100757.00;6257640;28;20041;-73
2023/01/01 07:09:43;;;;;;;3.13;0.43;;;;;;;14.25;75.32;100766.72;6259497;28;20049;-73
2023/01/01 07:12:44;;;;;;;2.15;0.57;;;;;;;14.27;74.48;100786.84;6256826;28;20508;-73
2023/01/01 07:15:46;;;;;;;1.92;0.77;;;;;;;14.26;75.08;100785.16;6256478;28;20057;-73
2023/01/01 07:18:49;;;;;;;1.45;1.02;;;;;;;14.29;74.62;100807.88;6259137;28;20468;-73
2023/01/01 07:21:53;;;;;;;2.28;0.70;;;;;;;14.18;76.77;100808.59;6256887;28;20509;-73
2023/01/01 07:24:55;;;;;;;4.47;0.88;;;;;;;14.26;76.24;100816.00;6262526;28;20041;-74
2023/01/01 07:27:56;;;;;;;0.70;0.52;;;;;;;14.27;76.07;100821.22;6271629;28;20059;-73
2023/01/01 07:30:57;;;;;;;1.55;0.65;;;;;;;14.24;76.39;100826.69;6271611;28;20428;-73
2023/01/01 07:33:59;;;;;;;2.45;0.95;;;;;;;14.27;76.34;100846.78;6271394;28;20041;-73
2023/01/01 07:37:01;;;;;;;1.10;0.70;;;;;;;14.25;78.18;100859.25;6265533;28;20060;-73
2023/01/01 07:40:03;;;;;;;3.83;0.90;;;;;;;14.19;77.90;100863.16;6258655;28;20056;-73
2023/01/01 07:43:04;;;;;;;1.73;0.75;;;;;;;14.16;78.78;100861.56;6256047;28;20465;-73
2023/01/01 07:46:06;;;;;;;1.92;0.80;;;;;;;14.11;79.37;100862.81;6245116;28;20056;-74
2023/01/01 07:49:07;;;;;;;2.95;0.55;;;;;;;14.08;79.04;100877.09;6256480;28;20504;-73
2023/01/01 07:52:10;;;;;;;1.52;0.65;;;;;;;14.10;79.18;100872.53;6257668;28;20052;-74
2023/01/01 07:55:12;;;;;;;3.28;0.80;;;;;;;14.09;80.53;100870.00;6253703;28;20057;-73
2023/01/01 07:58:13;;;;;;;2.75;0.90;;;;;;;14.04;81.32;100878.25;6262744;28;20045;-73
2023/01/01 08:01:15;;;;;;;3.38;1.00;;;;;;;14.12;80.29;100885.66;6270861;28;20053;-74
2023/01/01 08:04:16;;;;;;;1.40;0.68;;;;;;;14.09;81.40;100905.22;6271232;28;20504;-74
2023/01/01 08:07:18;;;;;;;7.85;1.30;;;;;;;14.15;80.84;100883.66;6268111;28;20053;-73
2023/01/01 08:10:20;;;;;;;3.97;1.38;;;;;;;14.21;81.04;100895.59;6264540;28;20508;-74
2023/01/01 08:13:22;;;;;;;1.40;0.77;;;;;;;14.09;82.72;100897.28;6263855;28;20049;-73
2023/01/01 08:16:23;;;;;;;4.25;1.05;;;;;;;14.00;83.33;100894.41;6271079;28;20049;-74
2023/01/01 08:19:24;;;;;;;1.17;0.70;;;;;;;14.05;83.57;100894.94;6270552;28;20052;-73
2023/01/01 08:22:27;;;;;;;3.05;0.73;;;;;;;14.09;83.22;100904.38;6258799;28;20057;-73
2023/01/01 08:25:28;;;;;;;3.53;1.13;;;;;;;14.06;82.47;100915.97;6265417;28;20515;-73
2023/01/01 08:28:30;;;;;;;5.30;1.70;;;;;;;14.08;82.83;100922.03;6266141;28;20049;-74
2023/01/01 08:31:32;;;;;;;2.20;1.20;;;;;;;14.10;82.96;100933.31;6269634;28;20416;-73
2023/01/01 08:34:33;;;;;;;1.65;0.80;;;;;;;14.12;82.26;100942.00;6265974;28;20049;-74
2023/01/01 08:37:36;;;;;;;4.38;0.60;;;;;;;14.09;82.84;100936.94;6263709;28;20393;-74
2023/01/01 08:40:38;;;;;;;2.03;0.82;;;;;;;14.11;82.30;100950.88;6265926;28;20424;-74
2023/01/01 08:43:39;;;;;;;2.50;0.75;;;;;;;14.09;83.21;100965.16;6258134;28;20490;-73
2023/01/01 08:46:40;;;;;;;6.20;0.98;;;;;;;14.05;84.86;100955.72;6262471;28;20056;-74
2023/01/01 08:49:41;;;;;;;5.85;0.70;;;;;;;14.09;83.51;100970.44;6270598;28;20049;-74
2023/01/01 08:52:44;;;;;;;6.72;0.95;;;;;;;14.08;83.06;100960.78;6264821;28;20054;-74
2023/01/01 08:55:54;;;;;;;1.35;0.57;;;;;;;14.08;83.29;100966.94;6267242;28;20056;-74
2023/01/01 08:58:55;;;;;;;5.40;0.70;;;;;;;14.09;85.33;100989.78;6263294;28;20057;-74
2023/01/01 09:01:58;;;;;;;4.03;0.60;;;;;;;14.00;85.60;100989.53;6260107;28;20061;-75
2023/01/01 09:04:59;;;;;;;0.80;0.73;;;;;;;13.99;85.97;100987.81;6275177;28;20049;-74
2023/01/01 09:08:02;;;;;;;2.88;1.15;;;;;;;13.93;87.08;101004.91;6266269;28;20076;-75
2023/01/01 09:11:04;;;;;;;1.90;0.93;;;;;;;13.86;88.23;101044.09;6250385;28;20045;-74
2023/01/01 09:14:05;;;;;;;4.07;0.93;;;;;;;13.78;85.26;101046.34;6249763;28;20053;-73
2023/01/01 09:17:07;;;;;;;1.40;0.63;;;;;;;13.54;88.21;101050.50;6263415;28;20056;-74
2023/01/01 09:20:09;;;;;;;4.20;0.40;;;;;;;13.32;89.67;101046.50;6274802;28;20048;-73
2023/01/01 09:23:12;;;;;;;2.45;0.55;;;;;;;13.16;85.75;101051.81;6274968;28;20056;-74
2023/01/01 09:26:13;;;;;;;5.93;0.50;;;;;;;13.01;86.52;101071.19;6274593;28;20051;-75
2023/01/01 09:29:17;;;;;;;1.20;0.50;;;;;;;12.89;91.66;101093.00;6274804;28;20519;-74
2023/01/01 09:32:18;;;;;;;2.25;0.80;;;;;;;12.77;96.19;101091.94;6274476;28;20061;-74
2023/01/01 09:35:20;;;;;;;2.83;0.60;;;;;;;12.74;100.00;101096.50;6251552;28;20052;-74
2023/01/01 09:38:22;;;;;;;1.38;0.60;;;;;;;12.78;100.00;101104.16;6249536;28;20452;-73
2023/01/01 09:41:38;;;;;;;2.17;0.50;;;;;;;12.76;100.00;101121.00;6249255;28;20057;-74
2023/01/01 09:44:57;;;;;;;3.60;0.90;;;;;;;12.69;100.00;101129.28;6249463;28;20041;-74
2023/01/01 09:48:05;;;;;;;1.50;0.98;;;;;;;12.68;100.00;101110.91;6249413;28;20402;-74
2023/01/01 09:51:15;;;;;;;1.45;0.60;;;;;;;12.64;100.00;101127.84;6249255;28;20187;-74
2023/01/01 09:54:26;;;;;;;2.22;1.00;;;;;;;12.56;100.00;101148.50;6249040;28;20049;-74
2023/01/01 09:57:30;;;;;;;5.07;1.30;;;;;;;12.57;100.00;101137.00;6249407;28;20057;-74
2023/01/01 10:00:34;;;;;;;0.95;0.82;;;;;;;12.55;100.00;101152.91;6249286;28;20049;-74
2023/01/01 10:03:45;;;;;;;2.45;0.75;;;;;;;12.46;100.00;101148.16;6249133;28;20524;-74
2023/01/01 10:06:56;;;;;;;0.50;0.50;;;;;;;12.50;100.00;101135.66;6249447;28;20072;-73
2023/01/01 10:10:13;;;;;;;3.75;0.68;;;;;;;12.43;99.36;101133.34;6273621;28;20146;-73
2023/01/01 10:13:24;;;;;;;0.80;0.43;;;;;;;12.40;98.05;101130.91;6273572;28;20049;-73
2023/01/01 10:16:31;;;;;;;1.17;0.40;;;;;;;12.35;98.11;101124.16;6273517;28;20045;-73
2023/01/01 10:19:38;;;;;;;3.60;0.50;;;;;;;12.29;98.76;101122.72;6273803;28;20057;-74
2023/01/01 10:22:44;;;;;;;1.75;0.40;;;;;;;12.32;98.58;101129.59;6273097;28;20142;-74
2023/01/01 10:25:47;;;;;;;0.47;0.47;;;;;;;12.29;97.52;101117.44;6273345;28;20045;-73
2023/01/01 10:29:00;;;;;;;8.15;0.75;;;;;;;12.24;98.70;101123.91;6273248;28;20115;-74
2023/01/01 10:32:14;;;;;;;0.55;0.40;;;;;;;12.24;99.35;101121.25;6273053;28;20052;-73
2023/01/01 10:35:17;;;;;;;0.30;0.30;;;;;;;12.13;100.00;101113.94;6248086;28;20046;-74
2023/01/01 10:38:22;;;;;;;0.98;0.43;;;;;;;12.09;100.00;101120.31;6248293;28;20049;-73
2023/01/01 10:41:25;;;;;;;6.80;0.60;;;;;;;12.18;100.00;101123.28;6247317;28;20076;-74
2023/01/01 10:44:29;;;;;;;1.65;0.60;;;;;;;12.15;100.00;101119.97;6247552;28;20054;-73
2023/01/01 10:47:31;;;;;;;0.88;0.40;;;;;;;12.11;100.00;101121.91;6247383;28;20489;-74
2023/01/01 10:50:42;;;;;;;0.88;0.45;;;;;;;12.13;100.00;101117.44;6247096;28;20057;-74
2023/01/01 10:53:50;;;;;;;1.63;0.60;;;;;;;12.13;100.00;101124.50;6267427;28;20056;-74
2023/01/01 10:56:52;;;;;;;0.73;0.40;;;;;;;12.14;100.00;101123.53;6272729;28;20045;-74
2023/01/01 10:59:54;;;;;;;1.08;0.55;;;;;;;12.13;100.00;101137.66;6272434;28;20056;-73
2023/01/01 11:03:18;;;;;;;3.92;1.15;;;;;;;12.10;100.00;101119.38;6272259;28;20053;-74
2023/01/01 11:06:22;;;;;;;2.53;0.90;;;;;;;12.08;100.00;101134.41;6272211;28;20416;-74
2023/01/01 11:09:26;;;;;;;3.20;0.63;;;;;;;12.08;100.00;101127.38;6250276;28;20049;-74
2023/01/01 11:12:33;;;;;;;0.98;0.77;;;;;;;12.10;100.00;101130.75;6247436;28;20516;-73
2023/01/01 11:15:38;;;;;;;1.55;0.70;;;;;;;12.05;100.00;101127.53;6247409;28;20061;-74
2023/01/01 11:18:39;;;;;;;0.70;0.70;;;;;;;12.08;100.00;101130.00;6264768;28;20044;-74
2023/01/01 11:21:47;;;;;;;1.20;0.50;;;;;;;12.02;100.00;101127.69;6256849;28;20401;-74
2023/01/01 11:24:59;;;;;;;2.10;0.80;;;;;;;12.13;100.00;101124.50;6269240;28;20523;-73
2023/01/01 11:28:20;;;;;;;4.82;0.75;;;;;;;12.07;100.00;101125.66;6272144;28;20052;-73
2023/01/01 11:31:26;;;;;;;1.42;0.88;;;;;;;12.14;100.00;101129.66;6270305;28;20049;-73
2023/01/01 11:34:31;;;;;;;3.08;0.88;;;;;;;12.13;100.00;101138.50;6261457;28;20049;-74
2023/01/01 11:37:37;;;;;;;2.20;0.70;;;;;;;12.10;100.00;101133.41;6267413;28;20074;-75
2023/01/01 11:40:45;;;;;;;2.25;0.75;;;;;;;12.16;100.00;101134.84;6270285;28;20565;-74
2023/01/01 11:43:48;;;;;;;2.25;0.80;;;;;;;12.21;100.00;101129.31;6260532;28;20049;-74
2023/01/01 11:46:51;;;;;;;1.30;0.80;;;;;;;12.19;100.00;101130.25;6256044;28;20052;-74
2023/01/01 11:49:59;;;;;;;10.27;1.00;;;;;;;12.09;100.00;101129.06;6264381;28;20500;-74
2023/01/01 11:53:18;;;;;;;3.53;0.90;;;;;;;12.13;100.00;101135.03;6262346;28;20064;-74
2023/01/01 11:56:21;;;;;;;1.83;0.98;;;;;;;12.20;100.00;101139.00;6250299;28;20041;-74
2023/01/01 11:59:28;;;;;;;0.95;0.75;;;;;;;12.24;100.00;101150.25;6259636;28;20041;-74
2023/01/01 12:02:35;;;;;;;2.40;1.00;;;;;;;12.28;100.00;101164.97;6261152;28;20041;-74
2023/01/01 12:05:44;;;;;;;2.15;1.00;;;;;;;12.26;100.00;101161.53;6260864;28;20056;-74
2023/01/01 12:08:50;;;;;;;;;;;;;;;12.15;100.00;101162.13;6262031;28;20131;-74
2023/01/01 12:11:56;;;;;;;4.00;1.10;;;;;;;12.21;100.00;101169.69;6264459;28;19921;-74
2023/01/01 12:15:03;;;;;;;2.28;1.15;;;;;;;12.29;100.00;101178.03;6267685;28;20501;-74
2023/01/01 12:18:12;;;;;;;4.93;1.10;;;;;;;12.22;100.00;101197.78;6270985;28;20064;-74
2023/01/01 12:21:22;;;;;;;1.55;0.63;;;;;;;12.19;100.00;101197.94;6270840;28;20053;-74
2023/01/01 12:24:33;;;;;;;8.43;1.38;;;;;;;12.08;100.00;101198.50;6271097;28;20095;-75
2023/01/01 12:27:51;;;;;;;3.60;1.00;;;;;;;11.99;100.00;101204.25;6271201;28;20056;-74
2023/01/01 12:31:02;;;;;;;2.15;0.73;;;;;;;11.76;100.00;101213.25;6268503;28;20485;-74
2023/01/01 12:34:10;;;;;;;3.20;1.38;;;;;;;11.71;100.00;101198.63;6257904;28;20056;-75
2023/01/01 12:37:21;;;;;;;1.35;0.70;;;;;;;11.71;100.00;101202.13;6273363;28;20060;-75
2023/01/01 12:40:34;;;;;;;1.67;0.82;;;;;;;11.57;100.00;101204.59;6275722;28;20049;-74
2023/01/01 12:43:44;;;;;;;1.13;0.50;;;;;;;11.52;100.00;101219.78;6275529;28;20053;-75
2023/01/01 12:46:50;;;;;;;2.28;0.65;;;;;;;11.49;100.00;101207.63;6275710;28;20416;-74
2023/01/01 12:50:04;;;;;;;2.67;0.80;;;;;;;11.41;100.00;101202.75;6276031;28;20041;-75
2023/01/01 12:53:17;;;;;;;3.22;0.70;;;;;;;11.42;100.00;101222.00;6275534;28;20044;-74
2023/01/01 12:56:23;;;;;;;4.05;1.20;;;;;;;11.32;100.00;101208.47;6275478;28;20080;-75
2023/01/01 12:59:29;;;;;;;1.67;0.77;;;;;;;11.30;100.00;101202.41;6275334;28;20076;-75
2023/01/01 13:02:36;;;;;;;3.90;0.75;;;;;;;11.27;100.00;101202.56;6275636;28;20516;-75
2023/01/01 13:05:42;;;;;;;1.20;0.65;;;;;;;11.27;100.00;101201.72;6274052;28;20053;-74
2023/01/01 13:08:50;;;;;;;1.38;0.75;;;;;;;11.27;100.00;101197.31;6267643;28;20065;-75
2023/01/01 13:11:56;;;;;;;0.60;0.45;;;;;;;11.27;100.00;101196.47;6274818;28;20056;-75
2023/01/01 13:14:57;;;;;;;0.90;0.80;;;;;;;11.28;100.00;101192.91;6274974;28;20060;-75
2023/01/01 13:18:01;;;;;;;2.95;1.15;;;;;;;11.29;100.00;101202.50;6275152;28;20061;-74
2023/01/01 13:21:06;;;;;;;0.77;0.60;;;;;;;11.34;100.00;101205.75;6272843;28;20056;-75
2023/01/01 13:24:20;;;;;;;4.55;1.08;;;;;;;11.27;100.00;101222.78;6274704;28;20053;-75
2023/01/01 13:28:03;;;;;;;3.70;1.05;;;;;;;11.30;100.00;101217.34;6274432;28;20075;-75
2023/01/01 13:31:04;;;;;;;6.65;2.25;;;;;;;11.36;100.00;101220.53;6274423;28;20407;-75
2023/01/01 13:34:39;;;;;;;2.53;1.25;;;;;;;11.43;100.00;101210.56;6274620;28;20049;-75
2023/01/01 13:37:46;;;;;;;8.43;1.27;;;;;;;11.50;100.00;101214.59;6261063;28;20424;-75
2023/01/01 13:40:51;;;;;;;6.53;1.23;;;;;;;11.54;100.00;101229.31;6274278;28;20049;-75
2023/01/01 13:43:53;;;;;;;1.90;0.75;;;;;;;11.46;100.00;101239.34;6274059;28;20202;-75
2023/01/01 13:47:19;;;;;;;4.55;0.82;;;;;;;11.48;100.00;101237.50;6268336;28;20037;-75
2023/01/01 13:50:27;;;;;;;2.40;0.63;;;;;;;11.50;100.00;101240.91;6272911;28;20049;-74
2023/01/01 13:53:58;;;;;;;4.70;0.90;;;;;;;11.52;100.00;101230.31;6270272;28;20053;-75
2023/01/01 13:57:02;;;;;;;5.90;1.00;;;;;;;11.57;100.00;101238.81;6268700;28;20136;-75
2023/01/01 14:00:16;;;;;;;2.55;0.90;;;;;;;11.61;100.00;101237.75;6273707;28;20056;-74
2023/01/01 14:03:18;;;;;;;13.25;1.45;;;;;;;11.61;100.00;101245.63;6274093;28;20045;-75
2023/01/01 14:06:26;;;;;;;2.17;0.73;;;;;;;11.63;100.00;101234.13;6273558;28;20687;-75
2023/01/01 14:09:29;;;;;;;7.65;1.52;;;;;;;11.64;100.00;101248.97;6273835;28;20045;-75
2023/01/01 14:12:30;;;;;;;2.90;1.20;;;;;;;11.64;100.00;101248.97;6273705;28;20059;-75
2023/01/01 14:15:33;;;;;;;2.20;1.00;;;;;;;11.58;100.00;101251.03;6273514;28;20045;-75
2023/01/01 14:18:39;;;;;;;0.80;0.80;;;;;;;11.55;100.00;101254.69;6273652;28;20060;-75
2023/01/01 14:21:40;;;;;;;6.82;1.80;;;;;;;11.57;100.00;101259.88;6273169;28;20041;-75